sensor_id;sensor_type;location;lat;lon;timestamp;P1;durP1;ratioP1;P2;durP2;ratioP2
22476;SDS011;65006;51.698;-0.292;2024-01-07T00:00:36;5.28;;;1.35;;
22476;SDS011;65006;51.698;-0.292;2024-01-07T00:03:03;6.75;;;1.60;;
22476;SDS011;65006;51.698;-0.292;2024-01-07T00:05:29;3.22;;;1.52;;
22476;SDS011;65006;51.698;-0.292;2024-01-07T00:07:55;5.13;;;1.25;;
22476;SDS011;65006;51.698;-0.292;2024-01-07T00:10:21;3.58;;;1.33;;
22476;SDS011;65006;51.698;-0.292;2024-01-07T00:12:47;5.38;;;1.45;;
22476;SDS011;65006;51.698;-0.292;2024-01-07T00:15:14;12.75;;;1.60;;
22476;SDS011;65006;51.698;-0.292;2024-01-07T00:17:40;4.25;;;1.35;;
22476;SDS011;65006;51.698;-0.292;2024-01-07T00:20:07;9.93;;;2.55;;
22476;SDS011;65006;51.698;-0.292;2024-01-07T00:24:59;11.68;;;4.30;;
22476;SDS011;65006;51.698;-0.292;2024-01-07T00:27:25;13.82;;;3.85;;
22476;SDS011;65006;51.698;-0.292;2024-01-07T00:29:51;9.60;;;3.55;;
22476;SDS011;65006;51.698;-0.292;2024-01-07T00:32:17;2.15;;;1.38;;
22476;SDS011;65006;51.698;-0.292;2024-01-07T00:34:43;4.15;;;1.52;;
22476;SDS011;65006;51.698;-0.292;2024-01-07T00:37:09;4.60;;;1.50;;
22476;SDS011;65006;51.698;-0.292;2024-01-07T00:39:35;5.32;;;1.52;;
22476;SDS011;65006;51.698;-0.292;2024-01-07T00:42:01;5.95;;;1.70;;
22476;SDS011;65006;51.698;-0.292;2024-01-07T00:44:27;3.10;;;1.42;;
22476;SDS011;65006;51.698;-0.292;2024-01-07T00:46:53;5.78;;;1.52;;
22476;SDS011;65006;51.698;-0.292;2024-01-07T00:49:19;5.35;;;1.52;;
22476;SDS011;65006;51.698;-0.292;2024-01-07T00:51:46;5.03;;;2.00;;
22476;SDS011;65006;51.698;-0.292;2024-01-07T00:54:12;8.45;;;2.08;;
22476;SDS011;65006;51.698;-0.292;2024-01-07T00:56:38;7.78;;;3.42;;
22476;SDS011;65006;51.698;-0.292;2024-01-07T00:59:04;10.95;;;3.95;;
22476;SDS011;65006;51.698;-0.292;2024-01-07T01:01:30;7.13;;;2.92;;
22476;SDS011;65006;51.698;-0.292;2024-01-07T01:03:56;11.57;;;3.83;;
22476;SDS011;65006;51.698;-0.292;2024-01-07T01:06:23;5.18;;;2.80;;
22476;SDS011;65006;51.698;-0.292;2024-01-07T01:08:49;9.27;;;2.72;;
22476;SDS011;65006;51.698;-0.292;2024-01-07T01:11:15;12.77;;;3.30;;
22476;SDS011;65006;51.698;-0.292;2024-01-07T01:13:41;6.80;;;2.35;;
22476;SDS011;65006;51.698;-0.292;2024-01-07T01:16:07;8.07;;;2.35;;
22476;SDS011;65006;51.698;-0.292;2024-01-07T01:18:33;10.68;;;3.28;;
22476;SDS011;65006;51.698;-0.292;2024-01-07T01:20:59;10.55;;;3.72;;
22476;SDS011;65006;51.698;-0.292;2024-01-07T01:23:25;6.13;;;3.05;;
22476;SDS011;65006;51.698;-0.292;2024-01-07T01:25:51;6.70;;;3.05;;
22476;SDS011;65006;51.698;-0.292;2024-01-07T01:28:17;5.10;;;1.65;;
22476;SDS011;65006;51.698;-0.292;2024-01-07T01:30:43;8.20;;;1.75;;
22476;SDS011;65006;51.698;-0.292;2024-01-07T01:33:09;4.93;;;1.20;;
22476;SDS011;65006;51.698;-0.292;2024-01-07T01:35:35;7.22;;;1.73;;
22476;SDS011;65006;51.698;-0.292;2024-01-07T01:38:01;3.15;;;1.35;;
22476;SDS011;65006;51.698;-0.292;2024-01-07T01:40:27;8.55;;;1.90;;
22476;SDS011;65006;51.698;-0.292;2024-01-07T01:42:53;6.85;;;2.17;;
22476;SDS011;65006;51.698;-0.292;2024-01-07T01:45:19;3.08;;;1.13;;
22476;SDS011;65006;51.698;-0.292;2024-01-07T01:47:45;1.88;;;1.05;;
22476;SDS011;65006;51.698;-0.292;2024-01-07T01:50:12;4.15;;;1.10;;
22476;SDS011;65006;51.698;-0.292;2024-01-07T01:52:38;5.57;;;1.88;;
22476;SDS011;65006;51.698;-0.292;2024-01-07T01:55:04;7.03;;;1.60;;
22476;SDS011;65006;51.698;-0.292;2024-01-07T01:57:33;3.70;;;1.20;;
22476;SDS011;65006;51.698;-0.292;2024-01-07T02:00:01;5.43;;;1.30;;
22476;SDS011;65006;51.698;-0.292;2024-01-07T02:02:30;4.85;;;1.08;;
22476;SDS011;65006;51.698;-0.292;2024-01-07T02:04:56;3.92;;;1.20;;
22476;SDS011;65006;51.698;-0.292;2024-01-07T02:07:24;3.25;;;1.30;;
22476;SDS011;65006;51.698;-0.292;2024-01-07T02:09:50;7.60;;;0.90;;
22476;SDS011;65006;51.698;-0.292;2024-01-07T02:12:16;3.90;;;1.35;;
22476;SDS011;65006;51.698;-0.292;2024-01-07T02:14:42;4.13;;;1.05;;
22476;SDS011;65006;51.698;-0.292;2024-01-07T02:17:08;4.32;;;1.20;;
22476;SDS011;65006;51.698;-0.292;2024-01-07T02:19:34;6.05;;;1.65;;
22476;SDS011;65006;51.698;-0.292;2024-01-07T02:22:00;4.85;;;1.13;;
22476;SDS011;65006;51.698;-0.292;2024-01-07T02:24:26;6.78;;;1.33;;
22476;SDS011;65006;51.698;-0.292;2024-01-07T02:26:52;4.25;;;1.30;;
22476;SDS011;65006;51.698;-0.292;2024-01-07T02:29:18;3.45;;;1.20;;
22476;SDS011;65006;51.698;-0.292;2024-01-07T02:31:43;2.83;;;1.27;;
22476;SDS011;65006;51.698;-0.292;2024-01-07T02:34:10;3.33;;;1.10;;
22476;SDS011;65006;51.698;-0.292;2024-01-07T02:36:36;3.50;;;1.00;;
22476;SDS011;65006;51.698;-0.292;2024-01-07T02:39:02;3.10;;;1.65;;
22476;SDS011;65006;51.698;-0.292;2024-01-07T02:43:54;5.03;;;1.50;;
22476;SDS011;65006;51.698;-0.292;2024-01-07T02:46:20;7.43;;;1.23;;
22476;SDS011;65006;51.698;-0.292;2024-01-07T02:51:14;6.05;;;1.50;;
22476;SDS011;65006;51.698;-0.292;2024-01-07T02:53:40;4.43;;;0.80;;
22476;SDS011;65006;51.698;-0.292;2024-01-07T02:56:06;2.00;;;0.93;;
22476;SDS011;65006;51.698;-0.292;2024-01-07T02:58:33;7.05;;;1.60;;
22476;SDS011;65006;51.698;-0.292;2024-01-07T03:00:59;2.50;;;1.13;;
22476;SDS011;65006;51.698;-0.292;2024-01-07T03:03:25;6.57;;;1.42;;
22476;SDS011;65006;51.698;-0.292;2024-01-07T03:05:51;5.00;;;1.08;;
22476;SDS011;65006;51.698;-0.292;2024-01-07T03:08:17;5.57;;;1.13;;
22476;SDS011;65006;51.698;-0.292;2024-01-07T03:10:43;5.00;;;1.10;;
22476;SDS011;65006;51.698;-0.292;2024-01-07T03:13:10;6.25;;;0.70;;
22476;SDS011;65006;51.698;-0.292;2024-01-07T03:15:37;1.65;;;0.90;;
22476;SDS011;65006;51.698;-0.292;2024-01-07T03:18:03;2.33;;;0.80;;
22476;SDS011;65006;51.698;-0.292;2024-01-07T03:20:29;2.22;;;0.90;;
22476;SDS011;65006;51.698;-0.292;2024-01-07T03:22:55;2.92;;;1.20;;
22476;SDS011;65006;51.698;-0.292;2024-01-07T03:25:21;2.65;;;0.70;;
22476;SDS011;65006;51.698;-0.292;2024-01-07T03:27:47;2.42;;;1.02;;
22476;SDS011;65006;51.698;-0.292;2024-01-07T03:30:13;4.88;;;1.40;;
22476;SDS011;65006;51.698;-0.292;2024-01-07T03:32:39;4.05;;;0.90;;
22476;SDS011;65006;51.698;-0.292;2024-01-07T03:35:05;4.07;;;0.82;;
22476;SDS011;65006;51.698;-0.292;2024-01-07T03:37:33;5.18;;;1.08;;
22476;SDS011;65006;51.698;-0.292;2024-01-07T03:39:59;2.67;;;0.82;;
22476;SDS011;65006;51.698;-0.292;2024-01-07T03:42:26;4.43;;;0.63;;
22476;SDS011;65006;51.698;-0.292;2024-01-07T03:44:52;1.85;;;0.60;;
22476;SDS011;65006;51.698;-0.292;2024-01-07T03:47:18;4.03;;;1.35;;
22476;SDS011;65006;51.698;-0.292;2024-01-07T03:49:45;3.38;;;0.60;;
22476;SDS011;65006;51.698;-0.292;2024-01-07T03:52:11;4.28;;;1.00;;
22476;SDS011;65006;51.698;-0.292;2024-01-07T03:54:37;3.63;;;1.27;;
22476;SDS011;65006;51.698;-0.292;2024-01-07T03:57:03;7.97;;;1.33;;
22476;SDS011;65006;51.698;-0.292;2024-01-07T03:59:29;4.47;;;1.00;;
22476;SDS011;65006;51.698;-0.292;2024-01-07T04:01:56;3.90;;;0.70;;
22476;SDS011;65006;51.698;-0.292;2024-01-07T04:04:23;8.10;;;1.17;;
22476;SDS011;65006;51.698;-0.292;2024-01-07T04:06:49;10.52;;;0.82;;
22476;SDS011;65006;51.698;-0.292;2024-01-07T04:09:15;1.15;;;0.70;;
22476;SDS011;65006;51.698;-0.292;2024-01-07T04:11:41;1.48;;;0.90;;
22476;SDS011;65006;51.698;-0.292;2024-01-07T04:14:08;5.90;;;1.25;;
22476;SDS011;65006;51.698;-0.292;2024-01-07T04:19:00;1.13;;;0.65;;
22476;SDS011;65006;51.698;-0.292;2024-01-07T04:21:26;7.28;;;0.85;;
22476;SDS011;65006;51.698;-0.292;2024-01-07T04:23:52;1.05;;;0.47;;
22476;SDS011;65006;51.698;-0.292;2024-01-07T04:26:18;6.88;;;1.25;;
22476;SDS011;65006;51.698;-0.292;2024-01-07T04:28:44;1.95;;;0.70;;
22476;SDS011;65006;51.698;-0.292;2024-01-07T04:31:10;0.95;;;0.60;;
22476;SDS011;65006;51.698;-0.292;2024-01-07T04:33:36;3.28;;;0.98;;
22476;SDS011;65006;51.698;-0.292;2024-01-07T04:36:02;4.28;;;0.90;;
22476;SDS011;65006;51.698;-0.292;2024-01-07T04:38:29;3.17;;;0.73;;
22476;SDS011;65006;51.698;-0.292;2024-01-07T04:40:55;5.35;;;0.60;;
22476;SDS011;65006;51.698;-0.292;2024-01-07T04:43:21;2.65;;;0.85;;
22476;SDS011;65006;51.698;-0.292;2024-01-07T04:45:47;6.38;;;0.93;;
22476;SDS011;65006;51.698;-0.292;2024-01-07T04:48:13;2.92;;;0.80;;
22476;SDS011;65006;51.698;-0.292;2024-01-07T04:50:40;2.33;;;1.00;;
22476;SDS011;65006;51.698;-0.292;2024-01-07T04:53:07;7.68;;;1.02;;
22476;SDS011;65006;51.698;-0.292;2024-01-07T04:55:33;5.97;;;0.90;;
22476;SDS011;65006;51.698;-0.292;2024-01-07T04:57:59;3.20;;;1.08;;
22476;SDS011;65006;51.698;-0.292;2024-01-07T05:00:26;2.45;;;0.95;;
22476;SDS011;65006;51.698;-0.292;2024-01-07T05:02:52;8.60;;;1.15;;
22476;SDS011;65006;51.698;-0.292;2024-01-07T05:05:18;3.53;;;1.10;;
22476;SDS011;65006;51.698;-0.292;2024-01-07T05:07:44;2.55;;;1.05;;
22476;SDS011;65006;51.698;-0.292;2024-01-07T05:10:10;1.48;;;0.60;;
22476;SDS011;65006;51.698;-0.292;2024-01-07T05:12:36;3.15;;;0.93;;
22476;SDS011;65006;51.698;-0.292;2024-01-07T05:15:02;1.90;;;1.02;;
22476;SDS011;65006;51.698;-0.292;2024-01-07T05:17:28;4.68;;;1.13;;
22476;SDS011;65006;51.698;-0.292;2024-01-07T05:22:21;4.00;;;1.10;;
22476;SDS011;65006;51.698;-0.292;2024-01-07T05:24:47;3.00;;;0.68;;
22476;SDS011;65006;51.698;-0.292;2024-01-07T05:27:13;2.50;;;1.02;;
22476;SDS011;65006;51.698;-0.292;2024-01-07T05:29:39;4.63;;;0.60;;
22476;SDS011;65006;51.698;-0.292;2024-01-07T05:32:05;1.52;;;1.10;;
22476;SDS011;65006;51.698;-0.292;2024-01-07T05:34:31;7.72;;;1.00;;
22476;SDS011;65006;51.698;-0.292;2024-01-07T05:36:57;3.63;;;0.80;;
22476;SDS011;65006;51.698;-0.292;2024-01-07T05:39:23;4.07;;;1.27;;
22476;SDS011;65006;51.698;-0.292;2024-01-07T05:41:49;2.67;;;1.10;;
22476;SDS011;65006;51.698;-0.292;2024-01-07T05:44:15;5.13;;;0.70;;
22476;SDS011;65006;51.698;-0.292;2024-01-07T05:46:41;5.22;;;1.10;;
22476;SDS011;65006;51.698;-0.292;2024-01-07T05:49:08;3.53;;;0.98;;
22476;SDS011;65006;51.698;-0.292;2024-01-07T05:51:37;1.33;;;0.77;;
22476;SDS011;65006;51.698;-0.292;2024-01-07T05:54:03;3.65;;;0.68;;
22476;SDS011;65006;51.698;-0.292;2024-01-07T05:56:29;1.27;;;1.17;;
22476;SDS011;65006;51.698;-0.292;2024-01-07T05:58:55;2.72;;;0.80;;
22476;SDS011;65006;51.698;-0.292;2024-01-07T06:01:21;5.63;;;0.90;;
22476;SDS011;65006;51.698;-0.292;2024-01-07T06:03:47;2.90;;;1.00;;
22476;SDS011;65006;51.698;-0.292;2024-01-07T06:06:14;4.38;;;0.93;;
22476;SDS011;65006;51.698;-0.292;2024-01-07T06:11:06;4.18;;;0.70;;
22476;SDS011;65006;51.698;-0.292;2024-01-07T06:13:32;1.52;;;1.30;;
22476;SDS011;65006;51.698;-0.292;2024-01-07T06:15:58;1.30;;;0.68;;
22476;SDS011;65006;51.698;-0.292;2024-01-07T06:18:24;5.25;;;0.68;;
22476;SDS011;65006;51.698;-0.292;2024-01-07T06:20:50;4.43;;;1.75;;
22476;SDS011;65006;51.698;-0.292;2024-01-07T06:23:16;2.03;;;0.73;;
22476;SDS011;65006;51.698;-0.292;2024-01-07T06:25:42;1.75;;;0.65;;
22476;SDS011;65006;51.698;-0.292;2024-01-07T06:28:08;3.72;;;0.80;;
22476;SDS011;65006;51.698;-0.292;2024-01-07T06:33:01;5.22;;;1.25;;
22476;SDS011;65006;51.698;-0.292;2024-01-07T06:35:27;2.15;;;0.73;;
22476;SDS011;65006;51.698;-0.292;2024-01-07T06:37:53;1.10;;;0.63;;
22476;SDS011;65006;51.698;-0.292;2024-01-07T06:40:20;2.60;;;0.60;;
22476;SDS011;65006;51.698;-0.292;2024-01-07T06:42:46;2.15;;;0.80;;
22476;SDS011;65006;51.698;-0.292;2024-01-07T06:45:13;1.80;;;0.82;;
22476;SDS011;65006;51.698;-0.292;2024-01-07T06:47:40;4.13;;;0.75;;
22476;SDS011;65006;51.698;-0.292;2024-01-07T06:50:06;3.85;;;0.68;;
22476;SDS011;65006;51.698;-0.292;2024-01-07T06:52:32;4.30;;;0.80;;
22476;SDS011;65006;51.698;-0.292;2024-01-07T06:54:58;4.45;;;1.20;;
22476;SDS011;65006;51.698;-0.292;2024-01-07T06:57:24;6.20;;;1.17;;
22476;SDS011;65006;51.698;-0.292;2024-01-07T06:59:50;2.40;;;0.82;;
22476;SDS011;65006;51.698;-0.292;2024-01-07T07:02:16;5.70;;;0.82;;
22476;SDS011;65006;51.698;-0.292;2024-01-07T07:04:42;2.92;;;0.82;;
22476;SDS011;65006;51.698;-0.292;2024-01-07T07:07:08;1.13;;;0.45;;
22476;SDS011;65006;51.698;-0.292;2024-01-07T07:09:34;2.78;;;0.68;;
22476;SDS011;65006;51.698;-0.292;2024-01-07T07:12:00;2.25;;;1.27;;
22476;SDS011;65006;51.698;-0.292;2024-01-07T07:14:26;5.32;;;0.90;;
22476;SDS011;65006;51.698;-0.292;2024-01-07T07:16:52;7.63;;;1.17;;
22476;SDS011;65006;51.698;-0.292;2024-01-07T07:19:18;3.42;;;1.17;;
22476;SDS011;65006;51.698;-0.292;2024-01-07T07:21:44;8.00;;;0.98;;
22476;SDS011;65006;51.698;-0.292;2024-01-07T07:24:10;1.42;;;0.50;;
22476;SDS011;65006;51.698;-0.292;2024-01-07T07:26:36;3.78;;;0.70;;
22476;SDS011;65006;51.698;-0.292;2024-01-07T07:29:06;7.07;;;0.93;;
22476;SDS011;65006;51.698;-0.292;2024-01-07T07:31:32;1.65;;;0.68;;
22476;SDS011;65006;51.698;-0.292;2024-01-07T07:33:58;7.47;;;0.82;;
22476;SDS011;65006;51.698;-0.292;2024-01-07T07:36:24;2.03;;;0.85;;
22476;SDS011;65006;51.698;-0.292;2024-01-07T07:38:50;1.08;;;0.80;;
22476;SDS011;65006;51.698;-0.292;2024-01-07T07:41:16;3.47;;;1.08;;
22476;SDS011;65006;51.698;-0.292;2024-01-07T07:43:42;1.42;;;0.60;;
22476;SDS011;65006;51.698;-0.292;2024-01-07T07:46:07;3.92;;;0.75;;
22476;SDS011;65006;51.698;-0.292;2024-01-07T07:48:33;0.70;;;0.70;;
22476;SDS011;65006;51.698;-0.292;2024-01-07T07:51:00;1.05;;;0.50;;
22476;SDS011;65006;51.698;-0.292;2024-01-07T07:53:26;2.58;;;0.60;;
22476;SDS011;65006;51.698;-0.292;2024-01-07T07:55:52;5.18;;;0.90;;
22476;SDS011;65006;51.698;-0.292;2024-01-07T07:58:17;2.53;;;0.80;;
22476;SDS011;65006;51.698;-0.292;2024-01-07T08:00:46;3.60;;;0.93;;
22476;SDS011;65006;51.698;-0.292;2024-01-07T08:03:12;3.15;;;0.95;;
22476;SDS011;65006;51.698;-0.292;2024-01-07T08:05:38;0.95;;;0.57;;
22476;SDS011;65006;51.698;-0.292;2024-01-07T08:08:05;7.13;;;0.80;;
22476;SDS011;65006;51.698;-0.292;2024-01-07T08:10:31;3.83;;;0.75;;
22476;SDS011;65006;51.698;-0.292;2024-01-07T08:12:59;2.78;;;0.80;;
22476;SDS011;65006;51.698;-0.292;2024-01-07T08:15:25;5.72;;;1.08;;
22476;SDS011;65006;51.698;-0.292;2024-01-07T08:17:51;4.60;;;0.90;;
22476;SDS011;65006;51.698;-0.292;2024-01-07T08:20:18;2.58;;;0.60;;
22476;SDS011;65006;51.698;-0.292;2024-01-07T08:22:47;1.15;;;0.80;;
22476;SDS011;65006;51.698;-0.292;2024-01-07T08:25:13;4.25;;;0.80;;
22476;SDS011;65006;51.698;-0.292;2024-01-07T08:27:40;4.72;;;0.98;;
22476;SDS011;65006;51.698;-0.292;2024-01-07T08:30:06;6.20;;;1.10;;
22476;SDS011;65006;51.698;-0.292;2024-01-07T08:32:32;6.60;;;1.00;;
22476;SDS011;65006;51.698;-0.292;2024-01-07T08:35:00;1.67;;;1.00;;
22476;SDS011;65006;51.698;-0.292;2024-01-07T08:37:26;2.65;;;0.70;;
22476;SDS011;65006;51.698;-0.292;2024-01-07T08:39:52;2.00;;;0.80;;
22476;SDS011;65006;51.698;-0.292;2024-01-07T08:42:19;2.83;;;1.15;;
22476;SDS011;65006;51.698;-0.292;2024-01-07T08:44:45;1.20;;;0.63;;
22476;SDS011;65006;51.698;-0.292;2024-01-07T08:47:12;3.13;;;1.15;;
22476;SDS011;65006;51.698;-0.292;2024-01-07T08:49:38;8.48;;;1.45;;
22476;SDS011;65006;51.698;-0.292;2024-01-07T08:52:04;5.80;;;0.75;;
22476;SDS011;65006;51.698;-0.292;2024-01-07T08:54:31;2.47;;;0.70;;
22476;SDS011;65006;51.698;-0.292;2024-01-07T08:56:58;4.03;;;1.25;;
22476;SDS011;65006;51.698;-0.292;2024-01-07T08:59:24;8.30;;;1.17;;
22476;SDS011;65006;51.698;-0.292;2024-01-07T09:01:50;2.53;;;0.82;;
22476;SDS011;65006;51.698;-0.292;2024-01-07T09:04:16;5.15;;;0.93;;
22476;SDS011;65006;51.698;-0.292;2024-01-07T09:06:43;3.88;;;0.73;;
22476;SDS011;65006;51.698;-0.292;2024-01-07T09:09:09;3.00;;;0.82;;
22476;SDS011;65006;51.698;-0.292;2024-01-07T09:11:37;3.45;;;0.93;;
22476;SDS011;65006;51.698;-0.292;2024-01-07T09:14:03;1.85;;;0.80;;
22476;SDS011;65006;51.698;-0.292;2024-01-07T09:16:29;8.65;;;1.05;;
22476;SDS011;65006;51.698;-0.292;2024-01-07T09:18:55;3.63;;;0.70;;
22476;SDS011;65006;51.698;-0.292;2024-01-07T09:21:21;1.85;;;0.70;;
22476;SDS011;65006;51.698;-0.292;2024-01-07T09:23:50;5.25;;;0.73;;
22476;SDS011;65006;51.698;-0.292;2024-01-07T09:26:16;3.95;;;0.70;;
22476;SDS011;65006;51.698;-0.292;2024-01-07T09:28:42;3.47;;;1.00;;
22476;SDS011;65006;51.698;-0.292;2024-01-07T09:31:08;9.02;;;1.00;;
22476;SDS011;65006;51.698;-0.292;2024-01-07T09:33:34;0.50;;;0.50;;
22476;SDS011;65006;51.698;-0.292;2024-01-07T09:36:00;5.53;;;0.63;;
22476;SDS011;65006;51.698;-0.292;2024-01-07T09:38:26;1.02;;;0.50;;
22476;SDS011;65006;51.698;-0.292;2024-01-07T09:40:52;5.10;;;0.70;;
22476;SDS011;65006;51.698;-0.292;2024-01-07T09:43:20;2.90;;;0.60;;
22476;SDS011;65006;51.698;-0.292;2024-01-07T09:45:46;6.65;;;0.50;;
22476;SDS011;65006;51.698;-0.292;2024-01-07T09:48:13;0.93;;;0.57;;
22476;SDS011;65006;51.698;-0.292;2024-01-07T09:53:05;7.70;;;0.85;;
22476;SDS011;65006;51.698;-0.292;2024-01-07T09:55:33;1.23;;;0.47;;
22476;SDS011;65006;51.698;-0.292;2024-01-07T09:57:59;2.88;;;0.60;;
22476;SDS011;65006;51.698;-0.292;2024-01-07T10:00:26;2.53;;;0.70;;
22476;SDS011;65006;51.698;-0.292;2024-01-07T10:02:53;5.13;;;1.10;;
22476;SDS011;65006;51.698;-0.292;2024-01-07T10:05:20;0.52;;;0.43;;
22476;SDS011;65006;51.698;-0.292;2024-01-07T10:07:46;3.60;;;0.63;;
22476;SDS011;65006;51.698;-0.292;2024-01-07T10:10:16;3.75;;;0.57;;
22476;SDS011;65006;51.698;-0.292;2024-01-07T10:12:44;5.10;;;1.13;;
22476;SDS011;65006;51.698;-0.292;2024-01-07T10:15:11;1.33;;;1.02;;
22476;SDS011;65006;51.698;-0.292;2024-01-07T10:17:37;1.70;;;0.60;;
22476;SDS011;65006;51.698;-0.292;2024-01-07T10:20:05;1.35;;;0.80;;
22476;SDS011;65006;51.698;-0.292;2024-01-07T10:22:36;4.85;;;1.00;;
22476;SDS011;65006;51.698;-0.292;2024-01-07T10:25:03;3.80;;;0.65;;
22476;SDS011;65006;51.698;-0.292;2024-01-07T10:27:29;3.95;;;1.00;;
22476;SDS011;65006;51.698;-0.292;2024-01-07T10:29:58;5.13;;;1.63;;
22476;SDS011;65006;51.698;-0.292;2024-01-07T10:32:24;5.05;;;1.20;;
22476;SDS011;65006;51.698;-0.292;2024-01-07T10:34:51;2.50;;;1.10;;
22476;SDS011;65006;51.698;-0.292;2024-01-07T10:37:18;2.47;;;0.98;;
22476;SDS011;65006;51.698;-0.292;2024-01-07T10:39:44;2.15;;;0.90;;
22476;SDS011;65006;51.698;-0.292;2024-01-07T10:42:10;3.00;;;0.90;;
22476;SDS011;65006;51.698;-0.292;2024-01-07T10:44:38;2.35;;;1.05;;
22476;SDS011;65006;51.698;-0.292;2024-01-07T10:47:05;3.45;;;0.95;;
22476;SDS011;65006;51.698;-0.292;2024-01-07T10:49:33;5.07;;;0.88;;
22476;SDS011;65006;51.698;-0.292;2024-01-07T10:52:05;3.38;;;0.88;;
22476;SDS011;65006;51.698;-0.292;2024-01-07T10:54:31;5.93;;;0.95;;
22476;SDS011;65006;51.698;-0.292;2024-01-07T10:57:04;6.13;;;1.05;;
22476;SDS011;65006;51.698;-0.292;2024-01-07T10:59:32;5.50;;;0.80;;
22476;SDS011;65006;51.698;-0.292;2024-01-07T11:04:30;4.30;;;0.88;;
22476;SDS011;65006;51.698;-0.292;2024-01-07T11:09:45;4.88;;;0.85;;
22476;SDS011;65006;51.698;-0.292;2024-01-07T11:12:13;4.93;;;0.98;;
22476;SDS011;65006;51.698;-0.292;2024-01-07T11:14:40;1.42;;;0.82;;
22476;SDS011;65006;51.698;-0.292;2024-01-07T11:17:10;4.20;;;1.42;;
22476;SDS011;65006;51.698;-0.292;2024-01-07T11:19:36;5.00;;;0.73;;
22476;SDS011;65006;51.698;-0.292;2024-01-07T11:22:21;4.88;;;0.98;;
22476;SDS011;65006;51.698;-0.292;2024-01-07T11:24:56;3.10;;;0.80;;
22476;SDS011;65006;51.698;-0.292;2024-01-07T11:27:25;4.55;;;0.63;;
22476;SDS011;65006;51.698;-0.292;2024-01-07T11:30:01;1.50;;;0.65;;
22476;SDS011;65006;51.698;-0.292;2024-01-07T11:32:29;4.55;;;1.10;;
22476;SDS011;65006;51.698;-0.292;2024-01-07T11:34:55;4.00;;;0.60;;
22476;SDS011;65006;51.698;-0.292;2024-01-07T11:37:24;1.80;;;0.90;;
22476;SDS011;65006;51.698;-0.292;2024-01-07T11:42:16;2.53;;;1.00;;
22476;SDS011;65006;51.698;-0.292;2024-01-07T11:44:55;2.05;;;0.80;;
22476;SDS011;65006;51.698;-0.292;2024-01-07T11:47:21;8.23;;;1.13;;
22476;SDS011;65006;51.698;-0.292;2024-01-07T11:49:48;2.90;;;1.02;;
22476;SDS011;65006;51.698;-0.292;2024-01-07T11:52:14;2.55;;;1.25;;
22476;SDS011;65006;51.698;-0.292;2024-01-07T11:54:43;3.28;;;0.60;;
22476;SDS011;65006;51.698;-0.292;2024-01-07T11:57:11;3.58;;;0.73;;
22476;SDS011;65006;51.698;-0.292;2024-01-07T11:59:37;3.63;;;0.77;;
22476;SDS011;65006;51.698;-0.292;2024-01-07T12:02:03;5.20;;;0.80;;
22476;SDS011;65006;51.698;-0.292;2024-01-07T12:04:32;6.25;;;1.50;;
22476;SDS011;65006;51.698;-0.292;2024-01-07T12:06:59;4.00;;;1.20;;
22476;SDS011;65006;51.698;-0.292;2024-01-07T12:09:25;2.28;;;1.10;;
22476;SDS011;65006;51.698;-0.292;2024-01-07T12:11:52;8.43;;;1.02;;
22476;SDS011;65006;51.698;-0.292;2024-01-07T12:14:18;1.60;;;0.80;;
22476;SDS011;65006;51.698;-0.292;2024-01-07T12:16:45;7.13;;;1.08;;
22476;SDS011;65006;51.698;-0.292;2024-01-07T12:19:12;1.83;;;0.93;;
22476;SDS011;65006;51.698;-0.292;2024-01-07T12:21:38;4.90;;;1.20;;
22476;SDS011;65006;51.698;-0.292;2024-01-07T12:24:05;6.50;;;1.08;;
22476;SDS011;65006;51.698;-0.292;2024-01-07T12:26:31;9.50;;;1.08;;
22476;SDS011;65006;51.698;-0.292;2024-01-07T12:29:02;8.77;;;0.90;;
22476;SDS011;65006;51.698;-0.292;2024-01-07T12:31:32;2.45;;;0.90;;
22476;SDS011;65006;51.698;-0.292;2024-01-07T12:33:58;1.30;;;0.85;;
22476;SDS011;65006;51.698;-0.292;2024-01-07T12:36:25;5.13;;;0.82;;
22476;SDS011;65006;51.698;-0.292;2024-01-07T12:38:52;2.67;;;0.90;;
22476;SDS011;65006;51.698;-0.292;2024-01-07T12:41:21;3.10;;;0.80;;
22476;SDS011;65006;51.698;-0.292;2024-01-07T12:43:48;2.70;;;0.80;;
22476;SDS011;65006;51.698;-0.292;2024-01-07T12:46:15;2.47;;;0.90;;
22476;SDS011;65006;51.698;-0.292;2024-01-07T12:48:41;4.70;;;0.90;;
22476;SDS011;65006;51.698;-0.292;2024-01-07T12:51:07;6.60;;;1.35;;
22476;SDS011;65006;51.698;-0.292;2024-01-07T12:53:34;5.07;;;0.82;;
22476;SDS011;65006;51.698;-0.292;2024-01-07T12:56:01;6.18;;;1.13;;
22476;SDS011;65006;51.698;-0.292;2024-01-07T12:58:27;6.53;;;1.15;;
22476;SDS011;65006;51.698;-0.292;2024-01-07T13:00:53;3.35;;;0.80;;
22476;SDS011;65006;51.698;-0.292;2024-01-07T13:03:19;7.20;;;0.98;;
22476;SDS011;65006;51.698;-0.292;2024-01-07T13:05:46;5.57;;;1.25;;
22476;SDS011;65006;51.698;-0.292;2024-01-07T13:08:14;2.58;;;1.00;;
22476;SDS011;65006;51.698;-0.292;2024-01-07T13:10:41;8.70;;;1.45;;
22476;SDS011;65006;51.698;-0.292;2024-01-07T13:13:07;1.67;;;0.63;;
22476;SDS011;65006;51.698;-0.292;2024-01-07T13:15:35;5.07;;;1.25;;
22476;SDS011;65006;51.698;-0.292;2024-01-07T13:18:02;3.15;;;0.77;;
22476;SDS011;65006;51.698;-0.292;2024-01-07T13:20:27;4.78;;;1.23;;
22476;SDS011;65006;51.698;-0.292;2024-01-07T13:22:54;4.97;;;1.00;;
22476;SDS011;65006;51.698;-0.292;2024-01-07T13:27:46;4.72;;;0.70;;
22476;SDS011;65006;51.698;-0.292;2024-01-07T13:30:12;4.30;;;0.90;;
22476;SDS011;65006;51.698;-0.292;2024-01-07T13:32:38;2.22;;;0.80;;
22476;SDS011;65006;51.698;-0.292;2024-01-07T13:35:05;5.63;;;1.10;;
22476;SDS011;65006;51.698;-0.292;2024-01-07T13:37:35;5.47;;;1.30;;
22476;SDS011;65006;51.698;-0.292;2024-01-07T13:40:01;1.02;;;0.70;;
22476;SDS011;65006;51.698;-0.292;2024-01-07T13:42:28;6.80;;;0.95;;
22476;SDS011;65006;51.698;-0.292;2024-01-07T13:44:56;4.68;;;0.80;;
22476;SDS011;65006;51.698;-0.292;2024-01-07T13:47:23;2.75;;;1.25;;
22476;SDS011;65006;51.698;-0.292;2024-01-07T13:49:49;2.63;;;0.75;;
22476;SDS011;65006;51.698;-0.292;2024-01-07T13:52:15;8.27;;;0.80;;
22476;SDS011;65006;51.698;-0.292;2024-01-07T13:54:41;1.98;;;0.90;;
22476;SDS011;65006;51.698;-0.292;2024-01-07T13:57:07;3.08;;;1.15;;
22476;SDS011;65006;51.698;-0.292;2024-01-07T13:59:33;8.40;;;1.45;;
22476;SDS011;65006;51.698;-0.292;2024-01-07T14:01:59;9.40;;;1.27;;
22476;SDS011;65006;51.698;-0.292;2024-01-07T14:04:26;2.88;;;1.10;;
22476;SDS011;65006;51.698;-0.292;2024-01-07T14:06:55;4.28;;;1.02;;
22476;SDS011;65006;51.698;-0.292;2024-01-07T14:09:21;5.97;;;1.10;;
22476;SDS011;65006;51.698;-0.292;2024-01-07T14:11:47;3.17;;;1.30;;
22476;SDS011;65006;51.698;-0.292;2024-01-07T14:14:13;7.28;;;1.00;;
22476;SDS011;65006;51.698;-0.292;2024-01-07T14:16:39;3.10;;;0.98;;
22476;SDS011;65006;51.698;-0.292;2024-01-07T14:19:06;4.05;;;0.90;;
22476;SDS011;65006;51.698;-0.292;2024-01-07T14:21:32;0.75;;;0.60;;
22476;SDS011;65006;51.698;-0.292;2024-01-07T14:23:58;7.43;;;0.75;;
22476;SDS011;65006;51.698;-0.292;2024-01-07T14:26:24;8.40;;;1.10;;
22476;SDS011;65006;51.698;-0.292;2024-01-07T14:28:50;2.85;;;0.90;;
22476;SDS011;65006;51.698;-0.292;2024-01-07T14:31:17;8.77;;;1.55;;
22476;SDS011;65006;51.698;-0.292;2024-01-07T14:36:09;1.92;;;0.95;;
22476;SDS011;65006;51.698;-0.292;2024-01-07T14:38:42;4.93;;;0.85;;
22476;SDS011;65006;51.698;-0.292;2024-01-07T14:41:08;5.70;;;1.30;;
22476;SDS011;65006;51.698;-0.292;2024-01-07T14:43:34;4.03;;;0.82;;
22476;SDS011;65006;51.698;-0.292;2024-01-07T14:46:00;4.78;;;1.73;;
22476;SDS011;65006;51.698;-0.292;2024-01-07T14:48:27;3.47;;;0.98;;
22476;SDS011;65006;51.698;-0.292;2024-01-07T14:50:53;3.97;;;0.80;;
22476;SDS011;65006;51.698;-0.292;2024-01-07T14:53:20;4.88;;;1.42;;
22476;SDS011;65006;51.698;-0.292;2024-01-07T14:55:45;2.80;;;0.95;;
22476;SDS011;65006;51.698;-0.292;2024-01-07T14:58:12;8.52;;;1.17;;
22476;SDS011;65006;51.698;-0.292;2024-01-07T15:00:38;8.93;;;1.45;;